sensor_id;sensor_type;location;lat;lon;timestamp;pressure;altitude;pressure_sealevel;temperature;humidity
72798;BME280;61084;55.816;37.036;2023-08-17T00:00:07;100247.03;;;17.53;62.63
72798;BME280;61084;55.816;37.036;2023-08-17T00:02:41;100247.13;;;17.51;62.93
72798;BME280;61084;55.816;37.036;2023-08-17T00:05:07;100247.31;;;17.48;63.01
72798;BME280;61084;55.816;37.036;2023-08-17T00:07:33;100244.84;;;17.45;62.83
72798;BME280;61084;55.816;37.036;2023-08-17T00:09:59;100249.41;;;17.43;62.91
72798;BME280;61084;55.816;37.036;2023-08-17T00:12:25;100245.16;;;17.41;62.96
72798;BME280;61084;55.816;37.036;2023-08-17T00:14:52;100255.03;;;17.39;63.07
72798;BME280;61084;55.816;37.036;2023-08-17T00:17:19;100264.03;;;17.36;63.33
72798;BME280;61084;55.816;37.036;2023-08-17T00:19:45;100260.66;;;17.34;63.35
72798;BME280;61084;55.816;37.036;2023-08-17T00:22:11;100258.09;;;17.32;63.42
72798;BME280;61084;55.816;37.036;2023-08-17T00:24:37;100260.75;;;17.32;63.33
72798;BME280;61084;55.816;37.036;2023-08-17T00:27:03;100267.13;;;17.30;63.28
72798;BME280;61084;55.816;37.036;2023-08-17T00:29:30;100264.66;;;17.27;63.54
72798;BME280;61084;55.816;37.036;2023-08-17T00:31:56;100270.19;;;17.24;64.49
72798;BME280;61084;55.816;37.036;2023-08-17T00:34:21;100269.44;;;17.22;63.68
72798;BME280;61084;55.816;37.036;2023-08-17T00:36:47;100266.03;;;17.20;63.41
72798;BME280;61084;55.816;37.036;2023-08-17T00:39:13;100269.00;;;17.15;63.70
72798;BME280;61084;55.816;37.036;2023-08-17T00:41:40;100266.34;;;17.15;63.64
72798;BME280;61084;55.816;37.036;2023-08-17T00:44:06;100264.72;;;17.13;63.60
72798;BME280;61084;55.816;37.036;2023-08-17T00:46:32;100265.66;;;17.12;63.69
72798;BME280;61084;55.816;37.036;2023-08-17T00:48:58;100260.47;;;17.10;63.59
72798;BME280;61084;55.816;37.036;2023-08-17T00:51:25;100271.19;;;17.09;63.57
72798;BME280;61084;55.816;37.036;2023-08-17T00:53:53;100268.72;;;17.06;63.65
72798;BME280;61084;55.816;37.036;2023-08-17T00:56:20;100269.69;;;17.05;63.43
72798;BME280;61084;55.816;37.036;2023-08-17T00:58:47;100270.75;;;17.02;63.49
72798;BME280;61084;55.816;37.036;2023-08-17T01:01:13;100270.00;;;17.00;63.53
72798;BME280;61084;55.816;37.036;2023-08-17T01:03:40;100267.41;;;16.99;63.53
72798;BME280;61084;55.816;37.036;2023-08-17T01:06:09;100280.78;;;16.97;63.43
72798;BME280;61084;55.816;37.036;2023-08-17T01:08:36;100277.41;;;16.95;63.59
72798;BME280;61084;55.816;37.036;2023-08-17T01:11:18;100276.66;;;16.93;63.88
72798;BME280;61084;55.816;37.036;2023-08-17T01:14:27;100279.47;;;16.90;64.00
72798;BME280;61084;55.816;37.036;2023-08-17T01:19:51;100268.34;;;16.85;63.88
72798;BME280;61084;55.816;37.036;2023-08-17T01:22:21;100280.00;;;16.83;64.14
72798;BME280;61084;55.816;37.036;2023-08-17T01:24:48;100281.78;;;16.82;64.23
72798;BME280;61084;55.816;37.036;2023-08-17T01:27:14;100277.41;;;16.81;64.06
72798;BME280;61084;55.816;37.036;2023-08-17T01:29:41;100287.28;;;16.79;64.15
72798;BME280;61084;55.816;37.036;2023-08-17T01:32:13;100285.59;;;16.78;64.15
72798;BME280;61084;55.816;37.036;2023-08-17T01:34:54;100290.22;;;16.75;64.27
72798;BME280;61084;55.816;37.036;2023-08-17T01:37:23;100283.34;;;16.72;64.14
72798;BME280;61084;55.816;37.036;2023-08-17T01:39:55;100288.72;;;16.71;64.01
72798;BME280;61084;55.816;37.036;2023-08-17T01:42:23;100283.53;;;16.69;63.92
72798;BME280;61084;55.816;37.036;2023-08-17T01:44:49;100287.97;;;16.69;63.99
72798;BME280;61084;55.816;37.036;2023-08-17T01:47:20;100284.56;;;16.67;64.08
72798;BME280;61084;55.816;37.036;2023-08-17T01:49:47;100279.47;;;16.64;63.94
72798;BME280;61084;55.816;37.036;2023-08-17T01:52:13;100283.06;;;16.63;64.55
72798;BME280;61084;55.816;37.036;2023-08-17T01:54:39;100287.59;;;16.61;64.13
72798;BME280;61084;55.816;37.036;2023-08-17T01:57:05;100286.97;;;16.57;64.60
72798;BME280;61084;55.816;37.036;2023-08-17T01:59:31;100285.25;;;16.56;64.42
72798;BME280;61084;55.816;37.036;2023-08-17T02:01:57;100282.78;;;16.53;64.59
72798;BME280;61084;55.816;37.036;2023-08-17T02:04:22;100277.47;;;16.53;64.41
72798;BME280;61084;55.816;37.036;2023-08-17T02:06:48;100285.53;;;16.51;64.34
72798;BME280;61084;55.816;37.036;2023-08-17T02:09:14;100288.28;;;16.50;64.44
72798;BME280;61084;55.816;37.036;2023-08-17T02:11:40;100283.06;;;16.48;64.52
72798;BME280;61084;55.816;37.036;2023-08-17T02:14:06;100286.66;;;16.47;65.17
72798;BME280;61084;55.816;37.036;2023-08-17T02:16:32;100289.47;;;16.44;64.85
72798;BME280;61084;55.816;37.036;2023-08-17T02:18:58;100290.56;;;16.42;64.77
72798;BME280;61084;55.816;37.036;2023-08-17T02:21:24;100287.03;;;16.41;64.83
72798;BME280;61084;55.816;37.036;2023-08-17T02:23:50;100294.13;;;16.41;64.52
72798;BME280;61084;55.816;37.036;2023-08-17T02:26:16;100292.34;;;16.41;64.63
72798;BME280;61084;55.816;37.036;2023-08-17T02:28:42;100287.97;;;16.40;64.70
72798;BME280;61084;55.816;37.036;2023-08-17T02:31:08;100287.13;;;16.40;64.78
72798;BME280;61084;55.816;37.036;2023-08-17T02:33:33;100284.47;;;16.40;64.73
72798;BME280;61084;55.816;37.036;2023-08-17T02:36:00;100288.06;;;16.39;64.73
72798;BME280;61084;55.816;37.036;2023-08-17T02:38:27;100289.00;;;16.38;64.99
72798;BME280;61084;55.816;37.036;2023-08-17T02:40:52;100286.34;;;16.38;65.07
72798;BME280;61084;55.816;37.036;2023-08-17T02:43:18;100284.56;;;16.38;64.93
72798;BME280;61084;55.816;37.036;2023-08-17T02:45:44;100290.84;;;16.37;65.25
72798;BME280;61084;55.816;37.036;2023-08-17T02:48:10;100288.06;;;16.39;65.10
72798;BME280;61084;55.816;37.036;2023-08-17T02:50:36;100290.72;;;16.39;65.32
72798;BME280;61084;55.816;37.036;2023-08-17T02:53:01;100294.13;;;16.41;65.35
72798;BME280;61084;55.816;37.036;2023-08-17T02:55:28;100287.97;;;16.40;65.40
72798;BME280;61084;55.816;37.036;2023-08-17T02:57:54;100298.41;;;16.43;65.56
72798;BME280;61084;55.816;37.036;2023-08-17T03:00:19;100296.50;;;16.45;65.66
72798;BME280;61084;55.816;37.036;2023-08-17T03:02:45;100301.63;;;16.48;66.06
72798;BME280;61084;55.816;37.036;2023-08-17T03:05:12;100297.84;;;16.52;65.88
72798;BME280;61084;55.816;37.036;2023-08-17T03:07:39;100291.41;;;16.56;65.98
72798;BME280;61084;55.816;37.036;2023-08-17T03:10:05;100287.59;;;16.61;66.20
72798;BME280;61084;55.816;37.036;2023-08-17T03:12:31;100290.84;;;16.66;65.87
72798;BME280;61084;55.816;37.036;2023-08-17T03:14:57;100291.38;;;16.71;65.71
72798;BME280;61084;55.816;37.036;2023-08-17T03:17:23;100293.72;;;16.75;65.95
72798;BME280;61084;55.816;37.036;2023-08-17T03:19:49;100289.00;;;16.80;65.81
72798;BME280;61084;55.816;37.036;2023-08-17T03:22:16;100292.22;;;16.85;66.01
72798;BME280;61084;55.816;37.036;2023-08-17T03:24:42;100294.47;;;16.91;66.15
72798;BME280;61084;55.816;37.036;2023-08-17T03:27:08;100293.94;;;16.99;66.08
72798;BME280;61084;55.816;37.036;2023-08-17T03:29:34;100291.66;;;17.07;66.11
72798;BME280;61084;55.816;37.036;2023-08-17T03:32:00;100295.59;;;17.14;66.52
72798;BME280;61084;55.816;37.036;2023-08-17T03:34:26;100296.91;;;17.21;66.62
72798;BME280;61084;55.816;37.036;2023-08-17T03:36:52;100298.22;;;17.28;67.07
72798;BME280;61084;55.816;37.036;2023-08-17T03:39:18;100288.91;;;17.35;67.05
72798;BME280;61084;55.816;37.036;2023-08-17T03:41:43;100292.81;;;17.42;66.98
72798;BME280;61084;55.816;37.036;2023-08-17T03:44:09;100303.06;;;17.48;67.35
72798;BME280;61084;55.816;37.036;2023-08-17T03:46:35;100295.66;;;17.53;67.50
72798;BME280;61084;55.816;37.036;2023-08-17T03:49:01;100294.28;;;17.60;67.43
72798;BME280;61084;55.816;37.036;2023-08-17T03:51:27;100293.78;;;17.68;67.73
72798;BME280;61084;55.816;37.036;2023-08-17T03:53:53;100293.13;;;17.77;67.41
72798;BME280;61084;55.816;37.036;2023-08-17T03:56:19;100294.34;;;17.85;68.32
72798;BME280;61084;55.816;37.036;2023-08-17T03:58:45;100291.03;;;17.94;67.53
72798;BME280;61084;55.816;37.036;2023-08-17T04:01:11;100299.84;;;18.07;67.50
72798;BME280;61084;55.816;37.036;2023-08-17T04:03:40;100297.31;;;18.19;67.51
72798;BME280;61084;55.816;37.036;2023-08-17T04:06:06;100297.31;;;18.31;67.50
72798;BME280;61084;55.816;37.036;2023-08-17T04:08:32;100300.16;;;18.41;67.56
72798;BME280;61084;55.816;37.036;2023-08-17T04:10:58;100303.81;;;18.52;67.42
72798;BME280;61084;55.816;37.036;2023-08-17T04:13:24;100303.66;;;18.66;67.48
72798;BME280;61084;55.816;37.036;2023-08-17T04:15:50;100305.22;;;18.81;67.72
72798;BME280;61084;55.816;37.036;2023-08-17T04:18:16;100306.88;;;18.95;67.60
72798;BME280;61084;55.816;37.036;2023-08-17T04:20:42;100303.34;;;19.07;67.34
72798;BME280;61084;55.816;37.036;2023-08-17T04:23:08;100307.53;;;19.22;67.33
72798;BME280;61084;55.816;37.036;2023-08-17T04:25:34;100304.81;;;19.35;67.11
72798;BME280;61084;55.816;37.036;2023-08-17T04:28:00;100307.41;;;19.47;67.26
72798;BME280;61084;55.816;37.036;2023-08-17T04:30:25;100310.00;;;19.60;67.10
72798;BME280;61084;55.816;37.036;2023-08-17T04:32:59;100316.97;;;19.74;67.12
72798;BME280;61084;55.816;37.036;2023-08-17T04:35:25;100305.34;;;19.86;67.29
72798;BME280;61084;55.816;37.036;2023-08-17T04:37:51;100314.09;;;19.99;67.13
72798;BME280;61084;55.816;37.036;2023-08-17T04:40:16;100308.19;;;20.06;67.32
72798;BME280;61084;55.816;37.036;2023-08-17T04:42:43;100305.09;;;20.23;67.17
72798;BME280;61084;55.816;37.036;2023-08-17T04:45:10;100309.47;;;20.36;66.86
72798;BME280;61084;55.816;37.036;2023-08-17T04:47:39;100302.94;;;20.51;66.46
72798;BME280;61084;55.816;37.036;2023-08-17T04:50:06;100307.06;;;20.66;66.17
72798;BME280;61084;55.816;37.036;2023-08-17T04:52:33;100305.91;;;20.79;65.96
72798;BME280;61084;55.816;37.036;2023-08-17T04:55:01;100309.19;;;20.94;65.56
72798;BME280;61084;55.816;37.036;2023-08-17T04:57:29;100301.78;;;21.09;65.70
72798;BME280;61084;55.816;37.036;2023-08-17T04:59:55;100303.44;;;21.21;65.62
72798;BME280;61084;55.816;37.036;2023-08-17T05:02:20;100305.09;;;21.33;65.38
72798;BME280;61084;55.816;37.036;2023-08-17T05:04:47;100310.28;;;21.45;65.29
72798;BME280;61084;55.816;37.036;2023-08-17T05:07:12;100307.41;;;21.58;64.58
72798;BME280;61084;55.816;37.036;2023-08-17T05:09:38;100307.97;;;21.72;64.38
72798;BME280;61084;55.816;37.036;2023-08-17T05:12:06;100307.81;;;21.85;64.27
72798;BME280;61084;55.816;37.036;2023-08-17T05:14:31;100302.13;;;21.99;64.68
72798;BME280;61084;55.816;37.036;2023-08-17T05:16:57;100297.16;;;22.15;63.87
72798;BME280;61084;55.816;37.036;2023-08-17T05:19:24;100300.91;;;22.33;63.95
72798;BME280;61084;55.816;37.036;2023-08-17T05:21:50;100299.56;;;22.48;63.70
72798;BME280;61084;55.816;37.036;2023-08-17T05:24:17;100298.25;;;22.64;63.50
72798;BME280;61084;55.816;37.036;2023-08-17T05:26:43;100306.59;;;22.80;63.20
72798;BME280;61084;55.816;37.036;2023-08-17T05:29:11;100301.84;;;22.93;62.69
72798;BME280;61084;55.816;37.036;2023-08-17T05:31:37;100299.50;;;23.09;62.47
72798;BME280;61084;55.816;37.036;2023-08-17T05:34:03;100300.50;;;23.17;62.47
72798;BME280;61084;55.816;37.036;2023-08-17T05:36:29;100305.44;;;23.32;62.26
72798;BME280;61084;55.816;37.036;2023-08-17T05:38:55;100312.41;;;23.44;62.08
72798;BME280;61084;55.816;37.036;2023-08-17T05:41:21;100307.75;;;23.55;61.84
72798;BME280;61084;55.816;37.036;2023-08-17T05:43:48;100307.31;;;23.69;61.30
72798;BME280;61084;55.816;37.036;2023-08-17T05:46:14;100305.03;;;23.84;60.92
72798;BME280;61084;55.816;37.036;2023-08-17T05:48:40;100308.13;;;23.98;60.43
72798;BME280;61084;55.816;37.036;2023-08-17T05:51:07;100306.47;;;24.07;60.25
72798;BME280;61084;55.816;37.036;2023-08-17T05:53:33;100310.81;;;24.18;60.21
72798;BME280;61084;55.816;37.036;2023-08-17T05:55:58;100306.81;;;24.31;59.80
72798;BME280;61084;55.816;37.036;2023-08-17T05:58:24;100303.81;;;24.44;60.15
72798;BME280;61084;55.816;37.036;2023-08-17T06:00:50;100300.06;;;24.54;59.20
72798;BME280;61084;55.816;37.036;2023-08-17T06:03:16;100308.81;;;24.66;59.45
72798;BME280;61084;55.816;37.036;2023-08-17T06:05:42;100317.69;;;24.76;59.00
72798;BME280;61084;55.816;37.036;2023-08-17T06:08:08;100312.09;;;24.87;58.11
72798;BME280;61084;55.816;37.036;2023-08-17T06:10:35;100308.38;;;24.98;58.41
72798;BME280;61084;55.816;37.036;2023-08-17T06:13:01;100307.31;;;25.08;57.92
72798;BME280;61084;55.816;37.036;2023-08-17T06:15:27;100307.72;;;25.13;57.23
72798;BME280;61084;55.816;37.036;2023-08-17T06:17:53;100304.13;;;25.22;57.72
72798;BME280;61084;55.816;37.036;2023-08-17T06:20:19;100308.94;;;25.36;57.61
72798;BME280;61084;55.816;37.036;2023-08-17T06:22:47;100309.44;;;25.50;57.13
72798;BME280;61084;55.816;37.036;2023-08-17T06:25:13;100312.91;;;25.60;56.72
72798;BME280;61084;55.816;37.036;2023-08-17T06:27:38;100308.59;;;25.67;55.86
72798;BME280;61084;55.816;37.036;2023-08-17T06:30:05;100308.69;;;25.75;56.01
72798;BME280;61084;55.816;37.036;2023-08-17T06:32:33;100297.28;;;25.81;54.98
72798;BME280;61084;55.816;37.036;2023-08-17T06:34:59;100297.72;;;25.94;55.67
72798;BME280;61084;55.816;37.036;2023-08-17T06:37:25;100296.78;;;26.03;55.32
72798;BME280;61084;55.816;37.036;2023-08-17T06:39:51;100300.06;;;26.14;55.35
72798;BME280;61084;55.816;37.036;2023-08-17T06:42:17;100298.28;;;26.23;55.02
72798;BME280;61084;55.816;37.036;2023-08-17T06:44:43;100298.34;;;26.31;54.63
72798;BME280;61084;55.816;37.036;2023-08-17T06:47:09;100288.97;;;26.43;54.07
72798;BME280;61084;55.816;37.036;2023-08-17T06:49:34;100289.00;;;26.51;52.27
72798;BME280;61084;55.816;37.036;2023-08-17T06:52:00;100290.22;;;26.57;52.86
72798;BME280;61084;55.816;37.036;2023-08-17T06:54:26;100299.69;;;26.69;53.15
72798;BME280;61084;55.816;37.036;2023-08-17T06:56:52;100302.00;;;26.81;51.76
72798;BME280;61084;55.816;37.036;2023-08-17T06:59:17;100302.38;;;26.95;52.47
72798;BME280;61084;55.816;37.036;2023-08-17T07:01:43;100293.97;;;27.06;51.18
72798;BME280;61084;55.816;37.036;2023-08-17T07:04:09;100291.97;;;27.16;51.97
72798;BME280;61084;55.816;37.036;2023-08-17T07:06:34;100295.34;;;27.26;50.70
72798;BME280;61084;55.816;37.036;2023-08-17T07:09:00;100297.38;;;27.32;51.41
72798;BME280;61084;55.816;37.036;2023-08-17T07:11:26;100296.44;;;27.41;50.05
72798;BME280;61084;55.816;37.036;2023-08-17T07:13:51;100296.97;;;27.44;49.77
72798;BME280;61084;55.816;37.036;2023-08-17T07:16:17;100294.25;;;27.44;50.01
72798;BME280;61084;55.816;37.036;2023-08-17T07:18:43;100297.63;;;27.46;50.52
72798;BME280;61084;55.816;37.036;2023-08-17T07:21:09;100297.63;;;27.46;49.43
72798;BME280;61084;55.816;37.036;2023-08-17T07:23:34;100293.22;;;27.53;50.96
72798;BME280;61084;55.816;37.036;2023-08-17T07:26:00;100299.50;;;27.62;48.91
72798;BME280;61084;55.816;37.036;2023-08-17T07:28:26;100298.28;;;27.64;50.91
72798;BME280;61084;55.816;37.036;2023-08-17T07:30:51;100295.59;;;27.64;49.29
72798;BME280;61084;55.816;37.036;2023-08-17T07:33:17;100299.31;;;27.72;49.96
72798;BME280;61084;55.816;37.036;2023-08-17T07:35:43;100291.38;;;27.78;48.86
72798;BME280;61084;55.816;37.036;2023-08-17T07:38:09;100292.75;;;27.90;49.93
72798;BME280;61084;55.816;37.036;2023-08-17T07:40:35;100295.13;;;28.01;49.52
72798;BME280;61084;55.816;37.036;2023-08-17T07:43:01;100288.53;;;28.12;50.02
72798;BME280;61084;55.816;37.036;2023-08-17T07:45:27;100286.97;;;28.25;49.53
72798;BME280;61084;55.816;37.036;2023-08-17T07:47:53;100288.16;;;28.31;49.81
72798;BME280;61084;55.816;37.036;2023-08-17T07:50:19;100285.59;;;28.38;49.11
72798;BME280;61084;55.816;37.036;2023-08-17T07:52:45;100287.78;;;28.42;48.83
72798;BME280;61084;55.816;37.036;2023-08-17T07:55:11;100284.91;;;28.44;48.47
72798;BME280;61084;55.816;37.036;2023-08-17T07:57:37;100277.97;;;28.57;49.20
72798;BME280;61084;55.816;37.036;2023-08-17T08:00:03;100285.19;;;28.65;48.48
72798;BME280;61084;55.816;37.036;2023-08-17T08:02:35;100291.25;;;28.75;48.39
72798;BME280;61084;55.816;37.036;2023-08-17T08:05:02;100291.19;;;28.83;48.15
72798;BME280;61084;55.816;37.036;2023-08-17T08:07:30;100282.22;;;28.90;47.97
72798;BME280;61084;55.816;37.036;2023-08-17T08:09:57;100292.59;;;29.01;47.52
72798;BME280;61084;55.816;37.036;2023-08-17T08:12:24;100287.50;;;29.06;47.53
72798;BME280;61084;55.816;37.036;2023-08-17T08:14:50;100289.50;;;29.13;46.87
72798;BME280;61084;55.816;37.036;2023-08-17T08:17:16;100291.72;;;29.17;46.79
72798;BME280;61084;55.816;37.036;2023-08-17T08:19:42;100285.41;;;29.25;46.99
72798;BME280;61084;55.816;37.036;2023-08-17T08:22:08;100279.09;;;29.32;46.77
72798;BME280;61084;55.816;37.036;2023-08-17T08:24:34;100284.81;;;29.37;45.82
72798;BME280;61084;55.816;37.036;2023-08-17T08:27:00;100282.78;;;29.39;46.49
72798;BME280;61084;55.816;37.036;2023-08-17T08:29:27;100283.94;;;29.45;46.18
72798;BME280;61084;55.816;37.036;2023-08-17T08:31:53;100282.91;;;29.46;46.00
72798;BME280;61084;55.816;37.036;2023-08-17T08:34:19;100282.00;;;29.53;45.98
72798;BME280;61084;55.816;37.036;2023-08-17T08:36:45;100277.91;;;29.57;45.50
72798;BME280;61084;55.816;37.036;2023-08-17T08:39:11;100279.88;;;29.63;45.86
72798;BME280;61084;55.816;37.036;2023-08-17T08:41:38;100280.00;;;29.70;45.33
72798;BME280;61084;55.816;37.036;2023-08-17T08:44:04;100273.53;;;29.79;45.46
72798;BME280;61084;55.816;37.036;2023-08-17T08:46:30;100267.38;;;29.85;45.42
72798;BME280;61084;55.816;37.036;2023-08-17T08:48:58;100267.78;;;29.97;45.37
72798;BME280;61084;55.816;37.036;2023-08-17T08:51:27;100254.59;;;29.94;44.23
72798;BME280;61084;55.816;37.036;2023-08-17T08:54:01;100260.34;;;29.91;44.34
72798;BME280;61084;55.816;37.036;2023-08-17T08:56:35;100259.25;;;30.00;44.05
72798;BME280;61084;55.816;37.036;2023-08-17T08:59:04;100262.56;;;30.10;44.46
72798;BME280;61084;55.816;37.036;2023-08-17T09:01:30;100268.09;;;30.16;44.29
72798;BME280;61084;55.816;37.036;2023-08-17T09:03:59;100261.25;;;30.20;44.20
72798;BME280;61084;55.816;37.036;2023-08-17T09:06:27;100263.88;;;30.28;44.13
72798;BME280;61084;55.816;37.036;2023-08-17T09:08:55;100263.34;;;30.33;42.52
72798;BME280;61084;55.816;37.036;2023-08-17T09:11:22;100263.03;;;30.28;42.33
72798;BME280;61084;55.816;37.036;2023-08-17T09:13:48;100259.19;;;30.22;43.47
72798;BME280;61084;55.816;37.036;2023-08-17T09:16:13;100254.56;;;30.31;42.53
72798;BME280;61084;55.816;37.036;2023-08-17T09:18:39;100252.31;;;30.34;43.06
72798;BME280;61084;55.816;37.036;2023-08-17T09:21:05;100257.91;;;30.47;43.26
72798;BME280;61084;55.816;37.036;2023-08-17T09:23:31;100255.56;;;30.59;42.78
72798;BME280;61084;55.816;37.036;2023-08-17T09:26:05;100262.78;;;30.67;42.74
72798;BME280;61084;55.816;37.036;2023-08-17T09:28:33;100259.38;;;30.65;42.73
72798;BME280;61084;55.816;37.036;2023-08-17T09:31:04;100261.81;;;30.74;43.22
72798;BME280;61084;55.816;37.036;2023-08-17T09:33:30;100259.84;;;30.83;42.67
72798;BME280;61084;55.816;37.036;2023-08-17T09:35:59;100258.28;;;30.88;42.50
72798;BME280;61084;55.816;37.036;2023-08-17T09:38:26;100255.81;;;30.93;42.46
72798;BME280;61084;55.816;37.036;2023-08-17T09:40:53;100258.16;;;30.96;42.50
72798;BME280;61084;55.816;37.036;2023-08-17T09:43:19;100256.53;;;31.02;42.47
72798;BME280;61084;55.816;37.036;2023-08-17T09:45:49;100260.38;;;31.07;43.05
72798;BME280;61084;55.816;37.036;2023-08-17T09:48:19;100258.31;;;31.09;42.08
72798;BME280;61084;55.816;37.036;2023-08-17T09:50:46;100257.91;;;31.12;41.86
72798;BME280;61084;55.816;37.036;2023-08-17T09:53:17;100253.66;;;31.03;41.25
72798;BME280;61084;55.816;37.036;2023-08-17T09:55:46;100255.31;;;31.04;41.23
72798;BME280;61084;55.816;37.036;2023-08-17T09:58:13;100263.53;;;31.11;42.07
72798;BME280;61084;55.816;37.036;2023-08-17T10:00:47;100247.81;;;31.21;41.11
72798;BME280;61084;55.816;37.036;2023-08-17T10:03:16;100257.03;;;31.26;41.57
72798;BME280;61084;55.816;37.036;2023-08-17T10:05:43;100255.66;;;31.37;41.71
72798;BME280;61084;55.816;37.036;2023-08-17T10:08:15;100251.38;;;31.43;40.91
72798;BME280;61084;55.816;37.036;2023-08-17T10:10:45;100247.31;;;31.39;39.92
72798;BME280;61084;55.816;37.036;2023-08-17T10:13:31;100246.59;;;31.45;40.19
72798;BME280;61084;55.816;37.036;2023-08-17T10:16:23;100247.75;;;31.57;40.25
72798;BME280;61084;55.816;37.036;2023-08-17T10:21:50;100249.34;;;31.72;39.73
72798;BME280;61084;55.816;37.036;2023-08-17T10:24:19;100252.44;;;31.69;40.68
72798;BME280;61084;55.816;37.036;2023-08-17T10:26:46;100235.78;;;31.72;41.10
72798;BME280;61084;55.816;37.036;2023-08-17T10:29:12;100241.78;;;31.68;40.05
72798;BME280;61084;55.816;37.036;2023-08-17T10:31:38;100240.50;;;31.64;40.44
72798;BME280;61084;55.816;37.036;2023-08-17T10:34:04;100241.84;;;31.74;40.73
72798;BME280;61084;55.816;37.036;2023-08-17T10:36:31;100232.06;;;31.80;40.14
72798;BME280;61084;55.816;37.036;2023-08-17T10:39:26;100244.63;;;31.81;38.11
72798;BME280;61084;55.816;37.036;2023-08-17T10:41:53;100233.38;;;31.84;39.24
72798;BME280;61084;55.816;37.036;2023-08-17T10:47:29;100229.28;;;31.94;38.63
72798;BME280;61084;55.816;37.036;2023-08-17T10:50:21;100227.28;;;31.82;37.44
72798;BME280;61084;55.816;37.036;2023-08-17T10:52:49;100227.41;;;31.74;39.58
72798;BME280;61084;55.816;37.036;2023-08-17T10:55:16;100225.50;;;31.68;39.62
72798;BME280;61084;55.816;37.036;2023-08-17T10:57:44;100222.56;;;31.69;39.79
72798;BME280;61084;55.816;37.036;2023-08-17T11:03:07;100222.34;;;31.92;39.40
72798;BME280;61084;55.816;37.036;2023-08-17T11:05:46;100217.84;;;31.99;39.10
72798;BME280;61084;55.816;37.036;2023-08-17T11:08:26;100219.31;;;32.08;38.99
72798;BME280;61084;55.816;37.036;2023-08-17T11:13:31;100209.59;;;32.20;38.46
72798;BME280;61084;55.816;37.036;2023-08-17T11:15:58;100213.63;;;32.31;39.24
72798;BME280;61084;55.816;37.036;2023-08-17T11:18:28;100204.88;;;32.35;39.04
72798;BME280;61084;55.816;37.036;2023-08-17T11:20:54;100208.03;;;32.45;38.54
72798;BME280;61084;55.816;37.036;2023-08-17T11:23:22;100200.78;;;32.52;38.35
72798;BME280;61084;55.816;37.036;2023-08-17T11:25:49;100207.50;;;32.56;38.49
72798;BME280;61084;55.816;37.036;2023-08-17T11:28:16;100199.81;;;32.66;38.97
72798;BME280;61084;55.816;37.036;2023-08-17T11:30:43;100201.91;;;32.71;38.50
72798;BME280;61084;55.816;37.036;2023-08-17T11:33:09;100208.00;;;32.73;38.12
72798;BME280;61084;55.816;37.036;2023-08-17T11:35:36;100199.84;;;32.80;38.87
72798;BME280;61084;55.816;37.036;2023-08-17T11:38:03;100203.44;;;32.93;38.36
72798;BME280;61084;55.816;37.036;2023-08-17T11:40:32;100198.66;;;33.02;39.21
72798;BME280;61084;55.816;37.036;2023-08-17T11:42:58;100207.50;;;33.04;38.14
72798;BME280;61084;55.816;37.036;2023-08-17T11:45:24;100194.50;;;33.06;38.34
72798;BME280;61084;55.816;37.036;2023-08-17T11:47:50;100183.81;;;33.11;38.07
72798;BME280;61084;55.816;37.036;2023-08-17T11:50:20;100187.38;;;33.11;37.36
72798;BME280;61084;55.816;37.036;2023-08-17T11:52:46;100183.81;;;33.04;37.59
72798;BME280;61084;55.816;37.036;2023-08-17T11:55:16;100181.09;;;33.11;37.29
72798;BME280;61084;55.816;37.036;2023-08-17T11:57:43;100174.63;;;33.25;37.94
72798;BME280;61084;55.816;37.036;2023-08-17T12:00:09;100176.75;;;33.36;37.66
72798;BME280;61084;55.816;37.036;2023-08-17T12:02:36;100185.72;;;33.43;36.72
72798;BME280;61084;55.816;37.036;2023-08-17T12:05:08;100167.72;;;33.49;36.11
72798;BME280;61084;55.816;37.036;2023-08-17T12:07:35;100165.00;;;33.49;36.18
72798;BME280;61084;55.816;37.036;2023-08-17T12:10:05;100167.53;;;33.57;36.09
72798;BME280;61084;55.816;37.036;2023-08-17T12:12:36;100166.28;;;33.59;35.17
72798;BME280;61084;55.816;37.036;2023-08-17T12:15:04;100162.72;;;33.65;36.40
72798;BME280;61084;55.816;37.036;2023-08-17T12:17:31;100165.03;;;33.68;35.55
72798;BME280;61084;55.816;37.036;2023-08-17T12:19:58;100157.25;;;33.78;36.08
72798;BME280;61084;55.816;37.036;2023-08-17T12:22:25;100153.66;;;33.91;35.79
72798;BME280;61084;55.816;37.036;2023-08-17T12:24:52;100151.75;;;33.98;35.67
72798;BME280;61084;55.816;37.036;2023-08-17T12:27:18;100151.56;;;34.06;35.63
72798;BME280;61084;55.816;37.036;2023-08-17T12:29:48;100144.63;;;34.10;34.55
72798;BME280;61084;55.816;37.036;2023-08-17T12:32:16;100144.16;;;34.20;35.19
72798;BME280;61084;55.816;37.036;2023-08-17T12:34:42;100148.78;;;34.26;34.36
72798;BME280;61084;55.816;37.036;2023-08-17T12:37:19;100143.72;;;34.29;33.30
72798;BME280;61084;55.816;37.036;2023-08-17T12:39:46;100135.72;;;34.41;34.91
72798;BME280;61084;55.816;37.036;2023-08-17T12:42:13;100139.84;;;34.50;34.63
72798;BME280;61084;55.816;37.036;2023-08-17T12:44:40;100147.81;;;34.58;34.28
72798;BME280;61084;55.816;37.036;2023-08-17T12:47:07;100144.84;;;34.66;34.62
72798;BME280;61084;55.816;37.036;2023-08-17T12:49:33;100137.53;;;34.60;34.14
72798;BME280;61084;55.816;37.036;2023-08-17T12:51:58;100138.34;;;34.67;34.58
72798;BME280;61084;55.816;37.036;2023-08-17T12:54:24;100144.97;;;34.77;34.41